createdAt,value
2023-02-23T00:01:45.796Z,0.20
2023-02-23T00:04:20.381Z,0.00
2023-02-23T00:06:55.611Z,0.10
2023-02-23T00:09:36.432Z,0.10
2023-02-23T00:12:11.899Z,0.20
2023-02-23T00:14:47.783Z,0.00
2023-02-23T00:17:24.892Z,0.20
2023-02-23T00:19:58.406Z,0.10
2023-02-23T00:22:32.493Z,0.00
2023-02-23T00:25:09.450Z,0.20
2023-02-23T00:27:46.403Z,0.00
2023-02-23T00:32:55.465Z,0.00
2023-02-23T00:35:29.240Z,0.00
2023-02-23T00:38:03.054Z,0.10
2023-02-23T00:40:36.905Z,0.00
2023-02-23T00:43:10.919Z,0.10
2023-02-23T00:45:47.212Z,0.10
2023-02-23T00:48:20.856Z,0.10
2023-02-23T00:51:03.127Z,0.10
2023-02-23T00:53:38.650Z,0.00
2023-02-23T00:56:14.094Z,0.00
2023-02-23T00:58:47.725Z,0.10
2023-02-23T01:01:23.308Z,0.00
2023-02-23T01:03:57.155Z,0.10
2023-02-23T01:06:33.067Z,0.10
2023-02-23T01:09:11.278Z,0.10
2023-02-23T01:11:47.173Z,0.00
2023-02-23T01:14:22.485Z,0.10
2023-02-23T01:16:56.589Z,0.10
2023-02-23T01:19:34.649Z,0.10
2023-02-23T01:22:10.687Z,0.00
2023-02-23T01:24:48.716Z,0.30
2023-02-23T01:27:22.356Z,0.10
2023-02-23T01:29:57.660Z,0.00
2023-02-23T01:32:31.358Z,0.10
2023-02-23T01:35:05.395Z,0.10
2023-02-23T01:37:41.051Z,0.10
2023-02-23T01:40:29.260Z,0.30
2023-02-23T01:43:13.562Z,0.10
2023-02-23T01:45:47.627Z,0.10
2023-02-23T01:48:23.080Z,0.00
2023-02-23T01:50:59.663Z,0.00
2023-02-23T01:53:35.398Z,0.10
2023-02-23T01:56:12.584Z,0.10
2023-02-23T01:58:48.886Z,0.00
2023-02-23T02:01:22.934Z,0.20
2023-02-23T02:03:59.563Z,0.10
2023-02-23T02:06:33.888Z,0.20
2023-02-23T02:09:10.739Z,0.40
2023-02-23T02:11:46.864Z,0.10
2023-02-23T02:14:25.639Z,0.30
2023-02-23T02:17:08.942Z,0.00
2023-02-23T02:20:14.174Z,0.10
2023-02-23T02:23:12.487Z,0.00
2023-02-23T02:26:00.442Z,0.00
2023-02-23T02:31:55.518Z,0.10
2023-02-23T02:35:14.355Z,0.10
2023-02-23T02:38:02.044Z,0.00
2023-02-23T02:40:53.975Z,0.00
2023-02-23T02:43:36.872Z,0.10
2023-02-23T02:46:14.374Z,0.10
2023-02-23T02:48:53.280Z,0.10
2023-02-23T02:51:30.311Z,0.10
2023-02-23T02:56:43.130Z,0.10
2023-02-23T02:59:36.428Z,0.00
2023-02-23T03:02:30.467Z,0.00
2023-02-23T03:05:21.111Z,0.00
2023-02-23T03:08:17.845Z,0.00
2023-02-23T03:11:14.315Z,0.10
2023-02-23T03:14:15.407Z,0.10
2023-02-23T03:17:13.663Z,0.20
2023-02-23T03:20:11.218Z,0.60
2023-02-23T03:23:09.756Z,0.30
2023-02-23T03:28:56.809Z,0.30
2023-02-23T03:31:54.648Z,1.20
2023-02-23T03:37:39.465Z,0.30
2023-02-23T03:40:35.164Z,0.80
2023-02-23T03:43:28.294Z,0.30
2023-02-23T03:46:21.052Z,0.30
2023-02-23T03:49:15.122Z,0.60
2023-02-23T03:52:11.102Z,0.40
2023-02-23T03:55:06.029Z,0.70
2023-02-23T03:57:57.245Z,1.00
2023-02-23T04:00:51.572Z,0.30
2023-02-23T04:03:43.350Z,0.50
2023-02-23T04:06:35.220Z,0.30
2023-02-23T04:09:27.593Z,0.30
2023-02-23T04:12:23.665Z,0.30
2023-02-23T04:15:01.527Z,0.40
2023-02-23T04:17:35.486Z,0.30
2023-02-23T04:20:11.434Z,0.20
2023-02-23T04:22:46.483Z,0.50
2023-02-23T04:25:23.247Z,0.70
2023-02-23T04:27:56.754Z,2.40
2023-02-23T04:30:30.750Z,0.40
2023-02-23T04:33:04.534Z,0.40
2023-02-23T04:35:39.194Z,0.30
2023-02-23T04:38:12.770Z,0.60
2023-02-23T04:40:46.410Z,0.50
2023-02-23T04:43:20.461Z,0.50
2023-02-23T04:45:55.112Z,0.60
2023-02-23T04:48:29.231Z,0.30
2023-02-23T04:51:02.938Z,0.70
2023-02-23T04:53:38.551Z,0.70
2023-02-23T04:56:12.716Z,0.80
2023-02-23T04:58:46.814Z,0.70
2023-02-23T05:01:23.065Z,1.00
2023-02-23T05:03:56.972Z,0.70
2023-02-23T05:06:30.505Z,0.90
2023-02-23T05:09:06.592Z,1.10
2023-02-23T05:11:40.354Z,1.00
2023-02-23T05:14:14.173Z,0.60
2023-02-23T05:16:48.382Z,0.80
2023-02-23T05:19:21.887Z,0.50
2023-02-23T05:21:56.572Z,0.70
2023-02-23T05:24:30.066Z,0.90
2023-02-23T05:27:03.955Z,0.60
2023-02-23T05:29:37.927Z,1.40
2023-02-23T05:32:13.380Z,0.80
2023-02-23T05:34:47.109Z,1.80
2023-02-23T05:37:20.793Z,1.50
2023-02-23T05:39:57.228Z,1.30
2023-02-23T05:42:30.910Z,2.20
2023-02-23T05:45:05.318Z,1.20
2023-02-23T05:47:41.078Z,0.60
2023-02-23T05:50:16.147Z,0.90
2023-02-23T05:52:50.018Z,1.10
2023-02-23T05:55:23.621Z,1.00
2023-02-23T05:57:57.547Z,1.10
2023-02-23T06:00:30.976Z,1.30
2023-02-23T06:03:06.405Z,1.10
2023-02-23T06:05:40.387Z,1.20
2023-02-23T06:08:14.918Z,1.50
2023-02-23T06:10:50.728Z,1.20
2023-02-23T06:13:24.392Z,1.00
2023-02-23T06:15:58.211Z,1.00
2023-02-23T06:18:32.691Z,1.20
2023-02-23T06:21:08.123Z,1.20
2023-02-23T06:23:41.984Z,1.50
2023-02-23T06:26:16.970Z,1.70
2023-02-23T06:28:51.058Z,1.70
2023-02-23T06:31:24.690Z,2.00
2023-02-23T06:33:58.709Z,2.10
2023-02-23T06:36:32.697Z,2.00
2023-02-23T06:39:06.593Z,3.20
2023-02-23T06:41:40.211Z,1.80
2023-02-23T06:44:14.666Z,1.40
2023-02-23T06:46:48.624Z,1.20
2023-02-23T06:49:22.956Z,0.80
2023-02-23T06:51:59.885Z,1.10
2023-02-23T06:57:05.150Z,1.40
2023-02-23T06:59:39.661Z,0.80
2023-02-23T07:02:15.215Z,0.60
2023-02-23T07:04:52.171Z,1.60
2023-02-23T07:09:58.087Z,2.00
2023-02-23T07:12:31.978Z,1.80
2023-02-23T07:15:06.557Z,1.40
2023-02-23T07:17:40.570Z,0.90
2023-02-23T07:20:16.715Z,1.70
2023-02-23T07:22:55.286Z,2.00
2023-02-23T07:25:29.131Z,1.90
2023-02-23T07:28:03.331Z,1.90
2023-02-23T07:30:37.077Z,2.50
2023-02-23T07:33:10.872Z,1.80
2023-02-23T07:35:45.597Z,2.40
2023-02-23T07:38:21.922Z,1.80
2023-02-23T07:40:56.687Z,2.70
2023-02-23T07:43:33.577Z,2.00
2023-02-23T07:48:40.443Z,1.60
2023-02-23T07:51:16.374Z,2.10
2023-02-23T07:53:51.226Z,2.10
2023-02-23T07:56:27.025Z,1.90
2023-02-23T07:59:03.976Z,2.10
2023-02-23T08:01:38.806Z,3.20
2023-02-23T08:04:12.851Z,3.10
2023-02-23T08:07:00.174Z,3.10
2023-02-23T08:09:36.294Z,3.70
2023-02-23T08:12:11.388Z,4.00
2023-02-23T08:14:46.205Z,2.20
2023-02-23T08:17:22.876Z,2.40
2023-02-23T08:19:56.722Z,2.90
2023-02-23T08:22:40.522Z,1.90
2023-02-23T08:25:21.361Z,2.40
2023-02-23T08:27:55.509Z,1.60
2023-02-23T08:30:29.660Z,2.20
2023-02-23T08:33:06.015Z,7.60
2023-02-23T08:35:46.849Z,3.20
2023-02-23T08:38:24.636Z,2.30
2023-02-23T08:40:58.970Z,3.10
2023-02-23T08:43:33.367Z,2.30
2023-02-23T08:46:08.429Z,3.00
2023-02-23T08:48:42.395Z,2.30
2023-02-23T08:51:16.875Z,2.40
2023-02-23T08:53:52.376Z,2.90
2023-02-23T08:56:27.504Z,2.00
2023-02-23T08:59:02.272Z,1.90
2023-02-23T09:01:37.814Z,2.10
2023-02-23T09:04:11.843Z,2.30
2023-02-23T09:06:45.637Z,2.50
2023-02-23T09:09:20.096Z,1.90
2023-02-23T09:11:54.647Z,3.00
2023-02-23T09:14:28.838Z,3.00
2023-02-23T09:17:03.275Z,3.40
2023-02-23T09:19:37.387Z,2.60
2023-02-23T09:22:11.787Z,3.50
2023-02-23T09:24:46.212Z,2.00
2023-02-23T09:27:19.962Z,2.40
2023-02-23T09:29:53.788Z,3.40
2023-02-23T09:32:29.091Z,3.40
2023-02-23T09:35:02.765Z,3.10
2023-02-23T09:37:36.630Z,2.20
2023-02-23T09:40:12.654Z,2.50
2023-02-23T09:42:50.781Z,2.50
2023-02-23T09:45:28.048Z,2.10
2023-02-23T09:48:10.652Z,1.90
2023-02-23T09:50:46.731Z,2.30
2023-02-23T09:53:31.635Z,2.30
2023-02-23T09:56:11.118Z,2.90
2023-02-23T09:58:46.312Z,1.70
2023-02-23T10:01:34.115Z,2.00
2023-02-23T10:04:15.066Z,3.20
2023-02-23T10:06:54.605Z,2.50
2023-02-23T10:09:49.469Z,1.70
2023-02-23T10:12:28.517Z,2.20
2023-02-23T10:15:14.472Z,1.60
2023-02-23T10:17:55.507Z,1.90
2023-02-23T10:20:35.484Z,2.00
2023-02-23T10:23:13.879Z,1.40
2023-02-23T10:25:49.678Z,2.80
2023-02-23T10:28:25.594Z,1.90
2023-02-23T10:30:59.824Z,2.40
2023-02-23T10:33:38.353Z,2.00
2023-02-23T10:36:17.580Z,1.00
2023-02-23T10:38:51.538Z,1.40
2023-02-23T10:41:28.839Z,1.00
2023-02-23T10:44:16.923Z,1.10
2023-02-23T10:46:58.093Z,1.50
2023-02-23T10:49:42.725Z,0.80
2023-02-23T10:52:19.291Z,0.70
2023-02-23T10:54:54.102Z,0.80
2023-02-23T10:57:31.491Z,0.60
2023-02-23T11:00:27.865Z,0.50
2023-02-23T11:03:05.077Z,0.40
2023-02-23T11:05:47.121Z,0.90
2023-02-23T11:08:33.008Z,0.60
2023-02-23T11:11:29.091Z,0.40
2023-02-23T11:14:03.257Z,0.60
2023-02-23T11:16:42.452Z,1.00
2023-02-23T11:19:24.216Z,0.90
2023-02-23T11:21:58.236Z,0.40
2023-02-23T11:24:35.356Z,1.20
2023-02-23T11:29:47.338Z,1.20
2023-02-23T11:35:15.605Z,1.60
2023-02-23T11:37:49.944Z,0.90
2023-02-23T11:40:25.282Z,0.90
2023-02-23T11:43:04.154Z,1.50
2023-02-23T11:45:46.755Z,0.70
2023-02-23T11:48:36.056Z,0.80
2023-02-23T11:51:16.149Z,1.00
2023-02-23T11:53:51.817Z,0.70
2023-02-23T11:56:27.713Z,1.00
2023-02-23T11:59:04.227Z,1.60
2023-02-23T12:01:45.146Z,1.60
2023-02-23T12:04:31.907Z,1.40
2023-02-23T12:07:44.829Z,1.40
2023-02-23T12:10:24.592Z,1.70
2023-02-23T12:13:07.789Z,1.10
2023-02-23T12:15:49.714Z,1.10
2023-02-23T12:18:39.696Z,0.70
2023-02-23T12:21:26.402Z,1.20
2023-02-23T12:24:12.756Z,2.20
2023-02-23T12:27:13.387Z,1.20
2023-02-23T12:30:09.015Z,1.90
2023-02-23T12:32:51.803Z,1.20
2023-02-23T12:35:31.010Z,1.10
2023-02-23T12:38:11.149Z,0.80
2023-02-23T12:40:46.208Z,1.30
2023-02-23T12:43:22.895Z,0.90
2023-02-23T12:45:58.321Z,0.90
2023-02-23T12:48:39.607Z,1.20
2023-02-23T12:51:21.345Z,1.50
2023-02-23T12:53:57.394Z,2.00
2023-02-23T12:56:42.982Z,1.50
2023-02-23T12:59:40.097Z,1.10
2023-02-23T13:05:04.708Z,1.10
2023-02-23T13:07:49.311Z,0.70
2023-02-23T13:10:30.919Z,0.90
2023-02-23T13:13:25.979Z,1.10
2023-02-23T13:16:07.801Z,1.60
2023-02-23T13:18:52.127Z,1.00
2023-02-23T13:21:36.814Z,1.20
2023-02-23T13:24:19.970Z,1.10
2023-02-23T13:26:57.688Z,1.10
2023-02-23T13:29:40.939Z,1.40
2023-02-23T13:32:23.787Z,1.10
2023-02-23T13:35:01.183Z,1.30
2023-02-23T13:37:41.225Z,1.60
2023-02-23T13:40:29.357Z,1.40
2023-02-23T13:43:18.131Z,0.80
2023-02-23T13:46:00.585Z,0.70
2023-02-23T13:48:57.298Z,1.10
2023-02-23T13:51:55.850Z,0.60
2023-02-23T13:54:37.237Z,1.20
2023-02-23T13:57:20.584Z,1.30
2023-02-23T13:59:58.009Z,0.90
2023-02-23T14:02:47.248Z,1.80
2023-02-23T14:05:28.491Z,1.70
2023-02-23T14:08:05.845Z,1.20
2023-02-23T14:10:46.932Z,1.00
2023-02-23T14:13:45.001Z,1.10
2023-02-23T14:19:16.256Z,1.60
2023-02-23T14:21:57.620Z,1.10
2023-02-23T14:24:35.936Z,1.10
2023-02-23T14:27:41.432Z,1.10
2023-02-23T14:30:28.042Z,1.20
2023-02-23T14:33:29.365Z,1.30
2023-02-23T14:36:05.322Z,1.20
2023-02-23T14:38:48.216Z,1.40
2023-02-23T14:41:27.170Z,1.00
2023-02-23T14:44:05.633Z,1.10
2023-02-23T14:46:40.037Z,1.00
2023-02-23T14:49:28.170Z,1.10
2023-02-23T14:52:15.435Z,0.80
2023-02-23T14:54:50.043Z,1.00
2023-02-23T14:57:28.588Z,1.60
2023-02-23T15:00:15.558Z,1.40
2023-02-23T15:03:06.034Z,1.40
2023-02-23T15:05:45.807Z,1.10
2023-02-23T15:08:25.954Z,1.30
2023-02-23T15:11:06.634Z,1.00
2023-02-23T15:13:45.351Z,1.30
2023-02-23T15:16:23.614Z,1.30
2023-02-23T15:19:00.000Z,1.50
2023-02-23T15:21:34.100Z,0.70
2023-02-23T15:24:16.982Z,1.30
2023-02-23T15:26:50.891Z,1.90
2023-02-23T15:29:27.238Z,1.50
2023-02-23T15:32:16.874Z,1.50
2023-02-23T15:34:59.014Z,1.20
2023-02-23T15:37:37.878Z,1.30
2023-02-23T15:40:16.796Z,0.90
2023-02-23T15:42:54.469Z,1.00
2023-02-23T15:45:36.940Z,1.10
2023-02-23T15:48:17.647Z,1.40
2023-02-23T15:50:53.782Z,1.70
2023-02-23T15:53:34.169Z,1.80
2023-02-23T15:56:16.632Z,1.60
2023-02-23T15:58:57.228Z,1.90
2023-02-23T16:01:34.320Z,1.40
2023-02-23T16:04:11.918Z,1.30
2023-02-23T16:06:56.862Z,1.60
2023-02-23T16:09:32.525Z,1.30
2023-02-23T16:12:13.154Z,1.60
2023-02-23T16:14:53.912Z,1.60
2023-02-23T16:17:31.468Z,1.80
2023-02-23T16:21:04.819Z,1.90
2023-02-23T16:23:46.397Z,1.80
2023-02-23T16:26:25.888Z,1.10
2023-02-23T16:29:04.614Z,1.50
2023-02-23T16:31:49.689Z,0.90
2023-02-23T16:34:30.062Z,0.50
2023-02-23T16:37:05.854Z,0.90
2023-02-23T16:39:39.651Z,1.20
2023-02-23T16:42:25.475Z,1.20
2023-02-23T16:45:12.979Z,1.20
2023-02-23T16:50:31.875Z,0.90
2023-02-23T16:53:24.547Z,1.00
2023-02-23T16:56:12.802Z,1.10
2023-02-23T17:01:23.665Z,1.80
2023-02-23T17:03:59.675Z,1.80
2023-02-23T17:06:34.792Z,0.80
2023-02-23T17:12:23.398Z,1.00
2023-02-23T17:15:16.434Z,0.90
2023-02-23T17:18:09.947Z,1.30
2023-02-23T17:21:04.020Z,1.30
2023-02-23T17:23:57.204Z,1.50
2023-02-23T17:26:33.950Z,1.00
2023-02-23T17:29:16.266Z,1.40
2023-02-23T17:32:01.238Z,1.00
2023-02-23T17:34:46.180Z,1.10
2023-02-23T17:37:36.909Z,0.90
2023-02-23T17:40:22.947Z,1.40
2023-02-23T17:43:16.278Z,1.30
2023-02-23T17:46:09.472Z,1.00
2023-02-23T17:49:00.858Z,0.40
2023-02-23T17:51:37.842Z,0.90
2023-02-23T17:54:41.911Z,1.30
2023-02-23T17:57:19.232Z,0.90
2023-02-23T17:59:53.027Z,1.20
2023-02-23T18:02:52.605Z,1.30
2023-02-23T18:05:29.247Z,0.50
2023-02-23T18:08:07.589Z,0.40
2023-02-23T18:10:44.286Z,0.50
2023-02-23T18:13:22.228Z,0.50
2023-02-23T18:16:06.598Z,0.40
2023-02-23T18:18:48.374Z,0.40
2023-02-23T18:21:41.742Z,0.50
2023-02-23T18:24:15.610Z,0.50
2023-02-23T18:26:55.841Z,0.60
2023-02-23T18:29:31.540Z,0.40
2023-02-23T18:35:22.855Z,0.60
2023-02-23T18:38:03.560Z,0.50
2023-02-23T18:40:59.433Z,1.10
2023-02-23T18:43:57.815Z,0.80
2023-02-23T18:46:33.030Z,0.70
2023-02-23T18:49:10.130Z,0.70
2023-02-23T18:51:54.228Z,0.50
2023-02-23T18:54:43.893Z,0.50
2023-02-23T18:57:26.378Z,0.60
2023-02-23T19:00:33.420Z,0.70
2023-02-23T19:03:19.437Z,0.70
2023-02-23T19:10:12.858Z,0.70
2023-02-23T19:13:06.651Z,1.20
2023-02-23T19:15:45.087Z,0.80
2023-02-23T19:18:26.228Z,0.90
2023-02-23T19:21:32.654Z,1.00
2023-02-23T19:24:37.071Z,1.00
2023-02-23T19:27:12.288Z,1.10
2023-02-23T19:29:51.792Z,1.00
2023-02-23T19:32:25.969Z,1.10
2023-02-23T19:35:26.998Z,0.50
2023-02-23T19:38:06.490Z,0.90
2023-02-23T19:40:47.215Z,0.90
2023-02-23T19:43:27.647Z,0.80
2023-02-23T19:46:09.575Z,1.10
2023-02-23T19:48:44.857Z,0.80
2023-02-23T19:51:26.904Z,0.90
2023-02-23T19:54:15.029Z,1.00
2023-02-23T19:57:05.337Z,0.60
2023-02-23T19:59:47.818Z,0.70
2023-02-23T20:02:22.744Z,0.90
2023-02-23T20:05:00.102Z,0.50
2023-02-23T20:07:35.609Z,0.40
2023-02-23T20:10:39.386Z,0.70
2023-02-23T20:13:20.079Z,0.70
2023-02-23T20:16:11.356Z,0.70
2023-02-23T20:18:53.427Z,0.60
2023-02-23T20:21:32.821Z,0.50
2023-02-23T20:24:13.499Z,0.70
2023-02-23T20:26:56.419Z,0.80
2023-02-23T20:29:33.024Z,0.90
2023-02-23T20:32:10.617Z,0.60
2023-02-23T20:35:02.234Z,1.00
2023-02-23T20:37:37.445Z,0.80
2023-02-23T20:40:18.822Z,0.70
2023-02-23T20:42:58.147Z,0.80
2023-02-23T20:45:35.066Z,0.50
2023-02-23T20:48:19.342Z,1.00
2023-02-23T20:50:59.967Z,1.50
2023-02-23T20:56:10.025Z,0.70
2023-02-23T20:58:48.745Z,0.40
2023-02-23T21:01:26.563Z,0.90
2023-02-23T21:04:03.557Z,0.80
2023-02-23T21:09:17.435Z,0.50
2023-02-23T21:11:51.654Z,1.20
2023-02-23T21:14:25.923Z,1.90
2023-02-23T21:16:59.439Z,0.90
2023-02-23T21:19:32.879Z,0.80
2023-02-23T21:22:09.904Z,0.80
2023-02-23T21:24:46.284Z,0.50
2023-02-23T21:27:19.922Z,0.50
2023-02-23T21:29:55.749Z,1.20
2023-02-23T21:32:31.450Z,0.70
2023-02-23T21:35:05.419Z,0.80
2023-02-23T21:37:39.832Z,1.60
2023-02-23T21:40:18.795Z,0.70
2023-02-23T21:42:57.963Z,1.00
2023-02-23T21:45:31.802Z,1.20
2023-02-23T21:48:06.418Z,1.10
2023-02-23T21:50:41.422Z,1.20
2023-02-23T21:53:16.665Z,1.00
2023-02-23T21:55:50.483Z,0.90
2023-02-23T21:58:25.850Z,1.10
2023-02-23T22:00:59.428Z,1.10
2023-02-23T22:03:33.102Z,1.30
2023-02-23T22:06:07.462Z,1.00
2023-02-23T22:08:43.743Z,1.30
2023-02-23T22:11:25.296Z,0.80
2023-02-23T22:14:05.528Z,0.90
2023-02-23T22:16:42.127Z,0.90
2023-02-23T22:19:17.987Z,1.00
2023-02-23T22:21:52.032Z,1.20
2023-02-23T22:24:25.789Z,1.10
2023-02-23T22:27:03.570Z,0.70
2023-02-23T22:29:40.178Z,1.20
2023-02-23T22:32:14.752Z,1.10
2023-02-23T22:34:53.443Z,0.90
2023-02-23T22:37:30.107Z,0.70
2023-02-23T22:40:14.333Z,0.80
2023-02-23T22:42:49.938Z,1.20
2023-02-23T22:45:23.757Z,1.20
2023-02-23T22:48:01.897Z,1.70
2023-02-23T22:50:39.221Z,1.10
2023-02-23T22:55:27.778Z,0.80
2023-02-23T22:58:00.649Z,0.90
2023-02-23T23:00:30.880Z,0.80
2023-02-23T23:03:05.426Z,0.80
2023-02-23T23:05:37.173Z,0.60
2023-02-23T23:08:08.129Z,0.80
2023-02-23T23:10:39.525Z,0.40
2023-02-23T23:13:11.546Z,0.80
2023-02-23T23:15:43.567Z,0.50
2023-02-23T23:18:20.353Z,0.50
2023-02-23T23:20:50.886Z,0.70
2023-02-23T23:23:23.415Z,0.80
2023-02-23T23:25:54.773Z,1.40
2023-02-23T23:28:27.581Z,0.60
2023-02-23T23:30:58.228Z,1.10
2023-02-23T23:33:30.391Z,0.60
2023-02-23T23:36:07.461Z,0.80
2023-02-23T23:41:13.458Z,0.70
2023-02-23T23:44:28.610Z,0.60
2023-02-23T23:46:59.456Z,0.70
2023-02-23T23:49:33.468Z,1.10
2023-02-23T23:52:04.677Z,0.70
2023-02-23T23:54:38.721Z,0.70
2023-02-23T23:57:11.379Z,0.60
2023-02-23T23:59:45.492Z,0.60
